createdAt,value
2022-11-16T00:00:11.440Z,76.53
2022-11-16T00:03:03.125Z,76.47
2022-11-16T00:05:33.993Z,76.50
2022-11-16T00:08:03.406Z,76.50
2022-11-16T00:10:32.873Z,76.51
2022-11-16T00:13:02.039Z,76.49
2022-11-16T00:15:31.327Z,76.52
2022-11-16T00:18:00.296Z,76.49
2022-11-16T00:20:29.611Z,76.52
2022-11-16T00:23:00.033Z,76.42
2022-11-16T00:25:29.582Z,76.58
2022-11-16T00:27:58.615Z,76.44
2022-11-16T00:30:28.358Z,76.42
2022-11-16T00:33:01.248Z,76.49
2022-11-16T00:35:30.603Z,76.53
2022-11-16T00:38:01.028Z,76.44
2022-11-16T00:40:30.300Z,76.40
2022-11-16T00:42:59.279Z,76.44
2022-11-16T00:45:28.693Z,76.32
2022-11-16T00:48:00.409Z,76.47
2022-11-16T00:50:30.990Z,76.32
2022-11-16T00:53:01.579Z,76.38
2022-11-16T00:55:31.836Z,76.26
2022-11-16T00:58:01.357Z,76.30
2022-11-16T01:00:31.571Z,76.30
2022-11-16T01:03:00.674Z,76.42
2022-11-16T01:05:30.171Z,76.24
2022-11-16T01:08:01.182Z,76.21
2022-11-16T01:10:31.100Z,76.30
2022-11-16T01:12:59.281Z,76.27
2022-11-16T01:15:29.729Z,76.33
2022-11-16T01:17:59.366Z,76.42
2022-11-16T01:20:30.619Z,76.31
2022-11-16T01:23:01.114Z,76.35
2022-11-16T01:25:30.563Z,76.27
2022-11-16T01:27:59.572Z,76.32
2022-11-16T01:30:41.150Z,76.35
2022-11-16T01:33:11.991Z,76.37
2022-11-16T01:35:45.226Z,76.32
2022-11-16T01:38:19.249Z,76.33
2022-11-16T01:40:48.754Z,76.44
2022-11-16T01:43:19.578Z,76.36
2022-11-16T01:45:50.117Z,76.36
2022-11-16T01:48:23.325Z,76.50
2022-11-16T01:50:55.543Z,76.51
2022-11-16T01:53:26.818Z,76.50
2022-11-16T01:55:58.957Z,76.52
2022-11-16T01:58:48.663Z,76.51
2022-11-16T02:01:27.749Z,76.50
2022-11-16T02:04:00.434Z,76.44
2022-11-16T02:06:48.323Z,76.45
2022-11-16T02:09:55.695Z,76.47
2022-11-16T02:12:47.730Z,76.54
2022-11-16T02:15:27.390Z,76.55
2022-11-16T02:18:32.322Z,76.49
2022-11-16T02:21:18.186Z,76.57
2022-11-16T02:24:17.055Z,76.55
2022-11-16T02:27:11.676Z,76.50
2022-11-16T02:29:46.080Z,76.43
2022-11-16T02:32:20.002Z,76.55
2022-11-16T02:34:53.857Z,76.54
2022-11-16T02:37:26.006Z,76.45
2022-11-16T02:39:59.842Z,76.42
2022-11-16T02:42:34.088Z,76.56
2022-11-16T02:45:10.028Z,76.41
2022-11-16T02:47:41.853Z,76.40
2022-11-16T02:50:16.176Z,76.53
2022-11-16T02:52:45.281Z,76.39
2022-11-16T02:55:14.861Z,76.47
2022-11-16T02:57:52.777Z,76.47
2022-11-16T03:00:26.092Z,76.43
2022-11-16T03:03:17.352Z,76.38
2022-11-16T03:05:50.618Z,76.44
2022-11-16T03:08:25.211Z,76.35
2022-11-16T03:11:17.508Z,76.29
2022-11-16T03:13:48.240Z,76.29
2022-11-16T03:16:23.608Z,76.24
2022-11-16T03:18:56.462Z,76.17
2022-11-16T03:21:34.954Z,76.26
2022-11-16T03:24:04.855Z,76.24
2022-11-16T03:26:39.599Z,76.21
2022-11-16T03:29:15.543Z,76.22
2022-11-16T03:31:51.819Z,76.20
2022-11-16T03:34:26.768Z,76.04
2022-11-16T03:36:57.820Z,76.01
2022-11-16T03:39:31.417Z,76.12
2022-11-16T03:42:03.824Z,76.18
2022-11-16T03:44:32.977Z,75.99
2022-11-16T03:47:04.137Z,76.15
2022-11-16T03:49:33.195Z,76.04
2022-11-16T03:52:02.607Z,76.07
2022-11-16T03:54:33.518Z,75.90
2022-11-16T03:57:03.568Z,76.12
2022-11-16T03:59:32.886Z,76.17
2022-11-16T04:02:03.776Z,76.15
2022-11-16T04:04:50.948Z,76.09
2022-11-16T04:07:37.696Z,76.06
2022-11-16T04:10:25.313Z,76.08
2022-11-16T04:13:12.211Z,76.15
2022-11-16T04:15:59.086Z,76.22
2022-11-16T04:18:46.966Z,76.16
2022-11-16T04:21:39.243Z,76.07
2022-11-16T04:24:15.132Z,75.90
2022-11-16T04:27:05.269Z,76.22
2022-11-16T04:29:35.700Z,76.11
2022-11-16T04:32:23.236Z,76.27
2022-11-16T04:35:11.640Z,76.08
2022-11-16T04:37:49.691Z,76.10
2022-11-16T04:40:26.396Z,76.20
2022-11-16T04:42:56.418Z,76.13
2022-11-16T04:45:44.270Z,76.11
2022-11-16T04:48:15.553Z,76.20
2022-11-16T04:50:46.468Z,76.11
2022-11-16T04:53:16.497Z,76.12
2022-11-16T04:55:51.221Z,75.94
2022-11-16T04:58:22.669Z,76.11
2022-11-16T05:00:52.395Z,76.16
2022-11-16T05:03:23.423Z,76.14
2022-11-16T05:05:54.264Z,75.97
2022-11-16T05:08:23.331Z,75.79
2022-11-16T05:10:54.740Z,75.88
2022-11-16T05:13:23.928Z,75.77
2022-11-16T05:15:55.004Z,75.81
2022-11-16T05:18:24.946Z,75.84
2022-11-16T05:21:01.231Z,76.02
2022-11-16T05:23:52.547Z,75.93
2022-11-16T05:26:24.628Z,75.86
2022-11-16T05:28:55.553Z,75.77
2022-11-16T05:31:25.068Z,75.90
2022-11-16T05:33:54.636Z,75.65
2022-11-16T05:36:26.146Z,75.83
2022-11-16T05:38:56.410Z,75.59
2022-11-16T05:41:29.976Z,75.63
2022-11-16T05:44:00.524Z,75.82
2022-11-16T05:46:29.970Z,75.62
2022-11-16T05:49:01.795Z,75.57
2022-11-16T05:51:32.684Z,75.61
2022-11-16T05:54:01.853Z,75.49
2022-11-16T05:56:31.642Z,75.49
2022-11-16T05:59:00.857Z,75.39
2022-11-16T06:01:30.657Z,75.42
2022-11-16T06:04:01.662Z,75.55
2022-11-16T06:06:33.838Z,75.47
2022-11-16T06:09:03.102Z,75.44
2022-11-16T06:11:36.241Z,75.59
2022-11-16T06:14:07.015Z,75.73
2022-11-16T06:16:37.886Z,75.57
2022-11-16T06:19:09.943Z,75.56
2022-11-16T06:21:40.805Z,75.47
2022-11-16T06:24:15.664Z,75.45
2022-11-16T06:26:47.435Z,75.47
2022-11-16T06:29:16.523Z,75.46
2022-11-16T06:31:45.734Z,75.42
2022-11-16T06:34:15.359Z,75.58
2022-11-16T06:36:46.421Z,75.27
2022-11-16T06:39:16.231Z,75.36
2022-11-16T06:41:45.596Z,75.43
2022-11-16T06:44:15.748Z,75.47
2022-11-16T06:46:54.798Z,75.31
2022-11-16T06:49:25.237Z,75.41
2022-11-16T06:51:58.565Z,75.30
2022-11-16T06:54:28.364Z,75.21
2022-11-16T06:56:57.693Z,75.08
2022-11-16T06:59:26.635Z,75.19
2022-11-16T07:01:55.977Z,75.29
2022-11-16T07:04:25.288Z,75.40
2022-11-16T07:06:59.804Z,75.17
2022-11-16T07:09:29.350Z,75.26
2022-11-16T07:11:58.989Z,75.27
2022-11-16T07:14:29.824Z,75.19
2022-11-16T07:17:01.077Z,75.17
2022-11-16T07:19:32.241Z,75.20
2022-11-16T07:22:03.528Z,75.29
2022-11-16T07:24:32.985Z,75.21
2022-11-16T07:27:02.347Z,74.99
2022-11-16T07:29:36.841Z,75.15
2022-11-16T07:32:25.335Z,75.18
2022-11-16T07:35:14.360Z,75.15
2022-11-16T07:37:46.002Z,75.26
2022-11-16T07:40:17.339Z,75.17
2022-11-16T07:42:48.375Z,75.20
2022-11-16T07:45:33.102Z,75.01
2022-11-16T07:48:08.619Z,74.88
2022-11-16T07:50:55.986Z,75.04
2022-11-16T07:53:27.205Z,74.80
2022-11-16T07:55:56.416Z,75.11
2022-11-16T07:58:28.762Z,74.81
2022-11-16T08:01:05.883Z,74.78
2022-11-16T08:03:37.126Z,74.96
2022-11-16T08:06:12.380Z,74.80
2022-11-16T08:08:43.373Z,74.91
2022-11-16T08:11:13.944Z,75.05
2022-11-16T08:13:45.685Z,74.98
2022-11-16T08:16:17.948Z,74.90
2022-11-16T08:18:48.865Z,74.89
2022-11-16T08:21:19.892Z,75.00
2022-11-16T08:23:55.348Z,75.01
2022-11-16T08:26:28.322Z,74.99
2022-11-16T08:29:03.947Z,74.90
2022-11-16T08:31:36.891Z,75.06
2022-11-16T08:34:25.018Z,74.91
2022-11-16T08:39:04.891Z,74.92
